createdAt,value
2019-05-05T00:01:00.933Z,90268.30
2019-05-05T00:03:35.772Z,90202.03
2019-05-05T00:06:07.167Z,90142.94
2019-05-05T00:08:36.942Z,90152.48
2019-05-05T00:11:15.357Z,90156.39
2019-05-05T00:14:05.688Z,90156.30
2019-05-05T00:16:37.742Z,90130.39
2019-05-05T00:19:10.017Z,90180.27
2019-05-05T00:21:41.308Z,90110.17
2019-05-05T00:24:15.164Z,89977.84
2019-05-05T00:26:46.213Z,90254.98
2019-05-05T00:29:16.842Z,90118.88
2019-05-05T00:31:49.800Z,90102.05
2019-05-05T00:34:20.462Z,90088.30
2019-05-05T00:36:52.408Z,90044.19
2019-05-05T00:39:22.241Z,90086.20
2019-05-05T00:41:55.451Z,90034.71
2019-05-05T00:44:25.482Z,89979.63
2019-05-05T00:46:57.611Z,89902.28
2019-05-05T00:49:45.525Z,89834.28
2019-05-05T00:52:05.113Z,89913.95
2019-05-05T00:54:36.119Z,90015.95
2019-05-05T00:57:06.306Z,89994.47
2019-05-05T00:59:36.173Z,89942.09
2019-05-05T01:02:19.776Z,89986.00
2019-05-05T01:04:57.333Z,89975.18
2019-05-05T01:07:27.261Z,90113.85
2019-05-05T01:09:57.601Z,90010.59
2019-05-05T01:12:27.757Z,90005.27
2019-05-05T01:14:57.511Z,90088.15
2019-05-05T01:17:27.270Z,89904.73
2019-05-05T01:20:03.406Z,89913.50
2019-05-05T01:22:29.415Z,89994.90
2019-05-05T01:24:59.163Z,90043.12
2019-05-05T01:27:28.935Z,89964.11
2019-05-05T01:29:59.650Z,89881.71
2019-05-05T01:32:35.155Z,89836.12
2019-05-05T01:35:06.423Z,89899.92
2019-05-05T01:37:46.884Z,89932.84
2019-05-05T01:40:27.519Z,89843.50
2019-05-05T01:42:58.111Z,89867.70
2019-05-05T01:45:27.859Z,89814.28
2019-05-05T01:47:57.593Z,89808.67
2019-05-05T01:50:27.301Z,89884.51
2019-05-05T01:52:57.052Z,89745.61
2019-05-05T01:55:27.851Z,89696.77
2019-05-05T01:57:57.838Z,89740.94
2019-05-05T02:00:28.955Z,89845.78
2019-05-05T02:02:58.811Z,89724.34
2019-05-05T02:05:30.111Z,89642.45
2019-05-05T02:07:59.874Z,89679.03
2019-05-05T02:10:29.657Z,89581.42
2019-05-05T02:12:59.418Z,89630.34
2019-05-05T02:15:29.187Z,89650.22
2019-05-05T02:17:58.979Z,89560.72
2019-05-05T02:20:40.618Z,89460.81
2019-05-05T02:23:11.845Z,89493.28
2019-05-05T02:25:41.675Z,89507.94
2019-05-05T02:28:12.357Z,89383.29
2019-05-05T02:30:49.984Z,89358.63
2019-05-05T02:33:20.832Z,89294.78
2019-05-05T02:35:50.737Z,89364.41
2019-05-05T02:38:20.534Z,89282.59
2019-05-05T02:40:50.370Z,89067.02
2019-05-05T02:43:20.808Z,89014.21
2019-05-05T02:45:55.318Z,88937.41
2019-05-05T02:48:26.541Z,88910.89
2019-05-05T02:51:02.019Z,88671.19
2019-05-05T02:53:35.148Z,88491.97
2019-05-05T02:56:06.984Z,88578.82
2019-05-05T02:58:38.368Z,88459.11
2019-05-05T03:01:16.060Z,88319.38
2019-05-05T03:03:45.894Z,88310.34
2019-05-05T03:06:15.663Z,88304.86
2019-05-05T03:08:45.534Z,88306.03
2019-05-05T03:11:16.620Z,88268.61
2019-05-05T03:13:48.031Z,88237.78
2019-05-05T03:16:23.766Z,88036.95
2019-05-05T03:18:54.554Z,87975.33
2019-05-05T03:21:24.484Z,87971.97
2019-05-05T03:23:54.858Z,88043.56
2019-05-05T03:26:25.419Z,87879.86
2019-05-05T03:28:56.738Z,87895.27
2019-05-05T03:31:26.785Z,87725.92
2019-05-05T03:33:56.998Z,87632.92
2019-05-05T03:36:28.427Z,87692.80
2019-05-05T03:38:58.220Z,87628.51
2019-05-05T03:41:29.852Z,87501.15
2019-05-05T03:44:10.406Z,87424.36
2019-05-05T03:46:40.257Z,87317.38
2019-05-05T03:49:10.006Z,87344.62
2019-05-05T03:51:39.781Z,87296.48
2019-05-05T03:54:09.745Z,87300.00
2019-05-05T03:56:39.542Z,87251.83
2019-05-05T03:59:09.435Z,87024.72
2019-05-05T04:01:54.544Z,86982.97
2019-05-05T04:04:25.042Z,87026.03
2019-05-05T04:06:58.813Z,86880.80
2019-05-05T04:09:28.818Z,86815.34
2019-05-05T04:11:58.693Z,86637.14
2019-05-05T04:14:28.446Z,86724.72
2019-05-05T04:17:16.860Z,86517.03
2019-05-05T04:19:48.171Z,86661.81
2019-05-05T04:22:17.940Z,86656.48
2019-05-05T04:24:47.751Z,86679.34
2019-05-05T04:27:17.503Z,86694.82
2019-05-05T04:29:47.264Z,86522.94
2019-05-05T04:32:17.087Z,86401.78
2019-05-05T04:34:46.859Z,86438.19
2019-05-05T04:37:16.816Z,86300.25
2019-05-05T04:39:46.542Z,86261.92
2019-05-05T04:42:16.291Z,86216.02
2019-05-05T04:44:46.004Z,86174.44
2019-05-05T04:47:20.101Z,86155.26
2019-05-05T04:49:51.432Z,85863.84
2019-05-05T04:52:23.663Z,85781.72
2019-05-05T04:54:55.635Z,85741.36
2019-05-05T04:57:26.199Z,85900.73
2019-05-05T04:59:56.027Z,85852.94
2019-05-05T05:02:27.379Z,85896.03
2019-05-05T05:04:58.723Z,85919.30
2019-05-05T05:07:28.428Z,85955.75
2019-05-05T05:09:58.235Z,86244.77
2019-05-05T05:12:27.939Z,86566.46
2019-05-05T05:14:57.708Z,86491.77
2019-05-05T05:17:44.560Z,86904.48
2019-05-05T05:20:14.444Z,87076.59
2019-05-05T05:22:45.099Z,87280.63
2019-05-05T05:25:14.856Z,87493.73
2019-05-05T05:27:44.561Z,87623.13
2019-05-05T05:30:14.352Z,87648.73
2019-05-05T05:32:44.664Z,87865.91
2019-05-05T05:35:14.590Z,87976.63
2019-05-05T05:37:44.882Z,87801.11
2019-05-05T05:40:16.565Z,87407.27
2019-05-05T05:42:46.369Z,87215.08
2019-05-05T05:45:34.314Z,87039.69
2019-05-05T05:48:23.664Z,86995.45
2019-05-05T05:51:01.103Z,87046.36
2019-05-05T05:53:30.787Z,86996.14
2019-05-05T05:56:04.219Z,86919.94
2019-05-05T05:58:33.811Z,86924.66
2019-05-05T06:01:04.288Z,86789.37
2019-05-05T06:03:34.343Z,87031.15
2019-05-05T06:06:04.693Z,87377.28
2019-05-05T06:08:34.885Z,87500.07
2019-05-05T06:11:04.705Z,87308.38
2019-05-05T06:13:34.487Z,87039.68
2019-05-05T06:16:04.522Z,87176.90
2019-05-05T06:18:34.721Z,86788.72
2019-05-05T06:21:04.710Z,86716.03
2019-05-05T06:23:34.647Z,86929.25
2019-05-05T06:26:06.707Z,86989.13
2019-05-05T06:28:36.213Z,87160.91
2019-05-05T06:31:05.995Z,87205.41
2019-05-05T06:33:35.742Z,87324.87
2019-05-05T06:36:05.553Z,87051.44
2019-05-05T06:38:35.410Z,87098.46
2019-05-05T06:41:23.621Z,86979.92
2019-05-05T06:43:57.856Z,86883.81
2019-05-05T06:46:29.259Z,87144.25
2019-05-05T06:48:59.628Z,87211.58
2019-05-05T06:51:29.362Z,87253.53
2019-05-05T06:53:59.565Z,87349.81
2019-05-05T06:56:29.350Z,87433.34
2019-05-05T06:58:59.266Z,87271.05
2019-05-05T07:01:29.084Z,87294.55
2019-05-05T07:03:58.839Z,87770.70
2019-05-05T07:06:28.539Z,88025.39
2019-05-05T07:08:58.389Z,88105.30
2019-05-05T07:11:28.116Z,87850.22
2019-05-05T07:13:57.848Z,87772.98
2019-05-05T07:16:27.827Z,87549.06
2019-05-05T07:18:57.581Z,87710.39
2019-05-05T07:21:27.351Z,87637.05
2019-05-05T07:23:57.056Z,87745.65
2019-05-05T07:26:26.758Z,87760.05
2019-05-05T07:28:56.529Z,88028.92
2019-05-05T07:31:26.274Z,88134.75
2019-05-05T07:33:56.044Z,88181.75
2019-05-05T07:36:36.379Z,88217.22
2019-05-05T07:39:07.476Z,88271.58
2019-05-05T07:41:40.333Z,88541.64
2019-05-05T07:44:22.699Z,88328.52
2019-05-05T07:46:40.206Z,88328.52
2019-05-05T07:49:09.918Z,88365.09
2019-05-05T07:51:39.728Z,88216.84
2019-05-05T07:54:09.481Z,88468.84
2019-05-05T07:56:39.747Z,88488.24
2019-05-05T07:59:10.137Z,88621.81
2019-05-05T08:01:43.215Z,88721.24
2019-05-05T08:04:13.544Z,88666.50
2019-05-05T08:06:44.503Z,88889.27
2019-05-05T08:09:14.691Z,89030.20
2019-05-05T08:11:44.642Z,88986.23
2019-05-05T08:14:14.701Z,88959.21
2019-05-05T08:16:46.219Z,89138.59
2019-05-05T08:19:34.715Z,89346.70
2019-05-05T08:22:04.645Z,89562.14
2019-05-05T08:24:52.102Z,89528.28
2019-05-05T08:27:40.184Z,89382.69
2019-05-05T08:30:17.692Z,89593.38
2019-05-05T08:32:49.030Z,89882.08
2019-05-05T08:35:18.782Z,89948.72
2019-05-05T08:37:48.620Z,90087.81
2019-05-05T08:40:18.418Z,90109.81
2019-05-05T08:42:48.217Z,90102.69
2019-05-05T08:45:18.023Z,90328.44
2019-05-05T08:47:48.299Z,90351.52
2019-05-05T08:50:18.071Z,90324.40
2019-05-05T08:52:47.917Z,90383.64
2019-05-05T08:55:17.729Z,90235.95
2019-05-05T08:57:47.816Z,90150.45
2019-05-05T09:00:18.623Z,90240.87
2019-05-05T09:02:48.528Z,90101.95
2019-05-05T09:05:18.304Z,90336.95
2019-05-05T09:07:48.292Z,90487.52
2019-05-05T09:10:18.880Z,90490.59
2019-05-05T09:12:48.639Z,90494.59
2019-05-05T09:15:18.340Z,90454.69
2019-05-05T09:17:49.257Z,90804.41
2019-05-05T09:20:19.027Z,90336.95
2019-05-05T09:22:48.812Z,90196.86
2019-05-05T09:25:23.580Z,90213.97
2019-05-05T09:28:06.106Z,90155.23
2019-05-05T09:30:39.925Z,90346.30
2019-05-05T09:33:10.240Z,90370.88
2019-05-05T09:35:40.036Z,90472.73
2019-05-05T09:38:09.841Z,90385.14
2019-05-05T09:40:43.952Z,90300.20
2019-05-05T09:43:14.791Z,90360.41
2019-05-05T09:45:44.771Z,90389.41
2019-05-05T09:48:14.570Z,90242.91
2019-05-05T09:50:44.351Z,90456.88
2019-05-05T09:53:14.636Z,90586.23
2019-05-05T09:55:45.056Z,90606.98
2019-05-05T09:58:14.979Z,90596.88
2019-05-05T10:00:46.466Z,90681.95
2019-05-05T10:03:16.208Z,90651.75
2019-05-05T10:05:46.107Z,90612.83
2019-05-05T10:08:16.628Z,90458.05
2019-05-05T10:10:46.427Z,90523.02
2019-05-05T10:13:16.203Z,90492.61
2019-05-05T10:15:45.926Z,90599.38
2019-05-05T10:18:15.768Z,90721.19
2019-05-05T10:20:45.583Z,90595.11
2019-05-05T10:23:15.268Z,90824.88
2019-05-05T10:25:46.653Z,90842.99
2019-05-05T10:28:16.433Z,90852.23
2019-05-05T10:30:46.200Z,90918.56
2019-05-05T10:33:16.018Z,90880.70
2019-05-05T10:35:46.112Z,90818.53
2019-05-05T10:38:15.927Z,90754.09
2019-05-05T10:40:48.259Z,90774.67
2019-05-05T10:43:17.230Z,90712.81
2019-05-05T10:45:47.001Z,90861.69
2019-05-05T10:48:16.812Z,90870.74
2019-05-05T10:50:46.574Z,90977.78
2019-05-05T10:53:16.343Z,90869.77
2019-05-05T10:55:46.196Z,90907.27
2019-05-05T10:58:16.308Z,90758.39
2019-05-05T11:00:49.219Z,90659.94
2019-05-05T11:03:19.297Z,90670.89
2019-05-05T11:05:50.518Z,90478.52
2019-05-05T11:08:20.299Z,90440.81
2019-05-05T11:10:50.338Z,90291.59
2019-05-05T11:13:20.131Z,90187.38
2019-05-05T11:15:49.912Z,90264.27
2019-05-05T11:18:20.169Z,90163.06
2019-05-05T11:20:50.198Z,90266.03
2019-05-05T11:23:20.681Z,90533.19
2019-05-05T11:25:51.495Z,90385.84
2019-05-05T11:28:21.262Z,90397.79
2019-05-05T11:30:51.152Z,90534.24
2019-05-05T11:33:34.703Z,90628.44
2019-05-05T11:36:06.027Z,90541.27
2019-05-05T11:38:35.787Z,90539.25
2019-05-05T11:41:05.598Z,90659.81
2019-05-05T11:43:35.594Z,90566.29
2019-05-05T11:46:05.368Z,90429.52
2019-05-05T11:48:38.238Z,90578.85
2019-05-05T11:51:08.162Z,90556.57
2019-05-05T11:53:37.983Z,90600.43
2019-05-05T11:56:08.292Z,90575.23
2019-05-05T11:58:37.977Z,90521.36
2019-05-05T12:01:08.057Z,90505.42
2019-05-05T12:03:38.244Z,90647.31
2019-05-05T12:06:07.933Z,90602.23
2019-05-05T12:08:37.518Z,90686.27
2019-05-05T12:11:07.702Z,90708.42
2019-05-05T12:13:37.501Z,90607.83
2019-05-05T12:16:08.955Z,90348.96
2019-05-05T12:18:38.972Z,90508.44
2019-05-05T12:21:08.793Z,90460.30
2019-05-05T12:23:38.603Z,90533.91
2019-05-05T12:26:09.857Z,90429.45
2019-05-05T12:28:43.901Z,90690.00
2019-05-05T12:31:15.802Z,90679.29
2019-05-05T12:33:46.978Z,90668.77
2019-05-05T12:36:16.778Z,90444.05
2019-05-05T12:38:46.777Z,90216.56
2019-05-05T12:41:16.598Z,89943.05
2019-05-05T12:43:46.386Z,89877.64
2019-05-05T12:46:35.729Z,89910.77
2019-05-05T12:49:09.883Z,89867.63
2019-05-05T12:51:39.692Z,89685.22
2019-05-05T12:54:09.578Z,89815.88
2019-05-05T12:56:41.409Z,89875.45
2019-05-05T12:59:14.262Z,89922.61
2019-05-05T13:01:44.327Z,90020.25
2019-05-05T13:04:14.613Z,89876.12
2019-05-05T13:06:45.180Z,90052.97
2019-05-05T13:09:16.218Z,90004.67
2019-05-05T13:11:45.958Z,89987.16
2019-05-05T13:14:16.191Z,89912.38
2019-05-05T13:16:52.777Z,89930.13
2019-05-05T13:19:20.365Z,89905.89
2019-05-05T13:21:54.490Z,89442.52
2019-05-05T13:24:25.932Z,89916.11
2019-05-05T13:27:08.756Z,89948.47
2019-05-05T13:29:34.987Z,90000.78
2019-05-05T13:32:05.706Z,89801.78
2019-05-05T13:34:35.738Z,89790.03
2019-05-05T13:37:06.355Z,89867.73
2019-05-05T13:39:36.092Z,89787.69
2019-05-05T13:42:06.024Z,89856.56
2019-05-05T13:44:53.526Z,89920.83
2019-05-05T13:47:24.179Z,89957.49
2019-05-05T13:49:55.701Z,89959.66
2019-05-05T13:52:25.497Z,89934.52
2019-05-05T13:54:55.367Z,89959.09
2019-05-05T13:57:25.534Z,89834.06
2019-05-05T13:59:55.779Z,89724.80
2019-05-05T14:02:26.182Z,89694.08
2019-05-05T14:04:56.544Z,89659.66
2019-05-05T14:07:27.225Z,89693.43
2019-05-05T14:09:58.992Z,89568.06
2019-05-05T14:12:28.614Z,89518.87
2019-05-05T14:14:58.517Z,89513.58
2019-05-05T14:17:29.003Z,89256.53
2019-05-05T14:20:05.238Z,89486.86
2019-05-05T14:22:30.302Z,89492.92
2019-05-05T14:25:04.814Z,89590.22
2019-05-05T14:27:34.833Z,89591.98
2019-05-05T14:30:20.532Z,89501.20
2019-05-05T14:32:51.442Z,89494.72
2019-05-05T14:35:40.199Z,89446.70
2019-05-05T14:38:14.482Z,89449.43
2019-05-05T14:40:44.587Z,89523.03
2019-05-05T14:43:16.836Z,89327.27
2019-05-05T14:45:46.197Z,89337.47
2019-05-05T14:48:16.106Z,89181.25
2019-05-05T14:50:47.743Z,89102.40
2019-05-05T14:53:19.556Z,89200.34
2019-05-05T14:55:49.453Z,89183.76
2019-05-05T14:58:19.413Z,89312.27
2019-05-05T15:00:49.249Z,89347.89
2019-05-05T15:03:19.068Z,89229.50
2019-05-05T15:05:54.759Z,88956.34
2019-05-05T15:08:43.981Z,89182.45
2019-05-05T15:11:16.230Z,89017.73
2019-05-05T15:13:46.134Z,88969.66
2019-05-05T15:16:16.612Z,89026.18
2019-05-05T15:18:46.588Z,89137.42
2019-05-05T15:21:16.786Z,89193.37
2019-05-05T15:23:47.078Z,89140.78
2019-05-05T15:26:17.199Z,89291.82
2019-05-05T15:28:58.497Z,89345.33
2019-05-05T15:31:19.509Z,89320.16
2019-05-05T15:33:53.422Z,89224.30
2019-05-05T15:36:24.334Z,89095.38
2019-05-05T15:38:55.208Z,89157.63
2019-05-05T15:41:26.099Z,89376.17
2019-05-05T15:43:55.957Z,89120.02
2019-05-05T15:46:27.023Z,89123.39
2019-05-05T15:48:56.833Z,89207.07
2019-05-05T15:51:26.673Z,89094.80
2019-05-05T15:53:56.548Z,89176.82
2019-05-05T15:56:27.893Z,89382.27
2019-05-05T15:59:01.238Z,89625.20
2019-05-05T16:01:31.364Z,89601.06
2019-05-05T16:04:03.659Z,89319.31
2019-05-05T16:06:34.497Z,89044.92
2019-05-05T16:09:08.672Z,88973.91
2019-05-05T16:11:38.849Z,89094.95
2019-05-05T16:14:09.745Z,89051.92
2019-05-05T16:16:42.137Z,89120.17
2019-05-05T16:19:16.610Z,88994.06
2019-05-05T16:21:54.512Z,88934.34
2019-05-05T16:24:36.590Z,89009.32
2019-05-05T16:27:21.088Z,88979.36
2019-05-05T16:29:40.718Z,88987.98
2019-05-05T16:32:19.535Z,89005.42
2019-05-05T16:34:43.537Z,88815.20
2019-05-05T16:37:14.393Z,88909.58
2019-05-05T16:39:44.409Z,88711.34
2019-05-05T16:42:15.343Z,88792.48
2019-05-05T16:44:46.374Z,88892.03
2019-05-05T16:47:18.672Z,88872.61
2019-05-05T16:49:48.597Z,88773.42
2019-05-05T16:52:23.972Z,88780.28
2019-05-05T16:55:07.594Z,88805.67
2019-05-05T16:57:37.825Z,88601.75
2019-05-05T17:00:08.321Z,88620.63
2019-05-05T17:02:39.276Z,88805.77
2019-05-05T17:05:10.071Z,88820.66
2019-05-05T17:07:40.476Z,88886.89
2019-05-05T17:10:14.023Z,88894.91
2019-05-05T17:12:44.977Z,88808.92
2019-05-05T17:15:35.182Z,88858.50
2019-05-05T17:18:08.608Z,88743.05
2019-05-05T17:20:48.643Z,88665.47
2019-05-05T17:23:19.398Z,88627.08
2019-05-05T17:25:49.320Z,88695.92
2019-05-05T17:28:19.527Z,88711.70
2019-05-05T17:30:49.436Z,88669.84
2019-05-05T17:33:19.847Z,88723.50
2019-05-05T17:35:49.715Z,88597.72
2019-05-05T17:38:19.927Z,88618.27
2019-05-05T17:40:51.381Z,88615.03
2019-05-05T17:43:27.914Z,88655.56
2019-05-05T17:46:10.526Z,88573.45
2019-05-05T17:48:58.514Z,88889.05
2019-05-05T17:51:31.371Z,88996.99
2019-05-05T17:54:18.101Z,88829.91
2019-05-05T17:56:48.472Z,88674.34
2019-05-05T17:59:19.397Z,88586.54
2019-05-05T18:01:53.841Z,88557.39
2019-05-05T18:04:25.917Z,88582.63
2019-05-05T18:06:57.453Z,88545.70
2019-05-05T18:09:29.445Z,88583.62
2019-05-05T18:12:07.078Z,88622.66
2019-05-05T18:14:44.353Z,88583.62
2019-05-05T18:17:14.422Z,88532.41
2019-05-05T18:19:44.648Z,88521.69
2019-05-05T18:22:15.288Z,88499.37
2019-05-05T18:24:46.394Z,88381.78
2019-05-05T18:27:19.603Z,88394.02
2019-05-05T18:29:51.503Z,88403.43
2019-05-05T18:32:28.334Z,88469.91
2019-05-05T18:35:06.098Z,88384.58
2019-05-05T18:37:38.018Z,88287.91
2019-05-05T18:40:08.056Z,88233.02
2019-05-05T18:42:42.042Z,88246.16
2019-05-05T18:45:16.678Z,88398.02
2019-05-05T18:47:49.461Z,88367.98
2019-05-05T18:50:19.363Z,88685.48
2019-05-05T18:52:51.375Z,88911.28
2019-05-05T18:55:23.566Z,89116.75
2019-05-05T18:58:05.113Z,89217.49
2019-05-05T19:00:50.994Z,88853.91
2019-05-05T19:03:28.033Z,88806.00
2019-05-05T19:06:08.367Z,88690.22
2019-05-05T19:08:53.660Z,88602.98
2019-05-05T19:11:19.001Z,88519.34
2019-05-05T19:13:51.107Z,88512.45
2019-05-05T19:16:23.765Z,88542.84
2019-05-05T19:18:55.704Z,88546.36
2019-05-05T19:21:30.075Z,88565.66
2019-05-05T19:24:00.161Z,88573.75
2019-05-05T19:26:30.084Z,88600.36
2019-05-05T19:29:02.978Z,88557.98
2019-05-05T19:31:36.329Z,88507.03
2019-05-05T19:34:05.314Z,88562.14
2019-05-05T19:36:36.513Z,88629.40
2019-05-05T19:39:08.798Z,88685.13
2019-05-05T19:41:44.316Z,88683.05
2019-05-05T19:44:14.756Z,88590.12
2019-05-05T19:46:49.281Z,88720.73
2019-05-05T19:49:20.872Z,88636.34
2019-05-05T19:51:53.948Z,88703.92
2019-05-05T19:54:25.303Z,88847.56
2019-05-05T19:56:55.708Z,88784.10
2019-05-05T19:59:27.122Z,88887.61
2019-05-05T20:01:58.029Z,88892.48
2019-05-05T20:04:28.157Z,88913.92
2019-05-05T20:06:59.075Z,88862.42
2019-05-05T20:09:29.244Z,88882.09
2019-05-05T20:12:00.063Z,88975.23
2019-05-05T20:14:29.798Z,89026.56
2019-05-05T20:17:01.256Z,88877.38
2019-05-05T20:19:34.156Z,88992.98
2019-05-05T20:22:04.248Z,88945.25
2019-05-05T20:24:34.998Z,89011.48
2019-05-05T20:27:04.942Z,88974.20
2019-05-05T20:29:37.473Z,89113.98
2019-05-05T20:32:07.558Z,89044.69
2019-05-05T20:34:44.883Z,89076.28
2019-05-05T20:37:16.253Z,89114.95
2019-05-05T20:39:46.078Z,89061.10
2019-05-05T20:42:18.532Z,88992.42
2019-05-05T20:44:48.349Z,89095.59
2019-05-05T20:47:18.159Z,89093.98
2019-05-05T20:49:47.923Z,89183.84
2019-05-05T20:52:17.742Z,89296.83
2019-05-05T20:54:48.578Z,89216.65
2019-05-05T20:57:18.400Z,89170.33
2019-05-05T20:59:50.623Z,89214.28
2019-05-05T21:02:20.372Z,89182.06
2019-05-05T21:04:50.214Z,89350.05
2019-05-05T21:07:24.358Z,89419.31
2019-05-05T21:09:52.990Z,89231.91
2019-05-05T21:12:24.619Z,89337.09
2019-05-05T21:14:54.298Z,89381.10
2019-05-05T21:17:24.234Z,89326.16
2019-05-05T21:19:54.063Z,89359.23
2019-05-05T21:22:40.436Z,89397.30
2019-05-05T21:25:24.164Z,89384.83
2019-05-05T21:27:54.338Z,89294.58
2019-05-05T21:30:24.912Z,89312.91
2019-05-05T21:32:55.268Z,89345.64
2019-05-05T21:35:25.003Z,89356.20
2019-05-05T21:37:54.803Z,89351.52
2019-05-05T21:40:25.414Z,89223.34
2019-05-05T21:42:55.149Z,89173.89
2019-05-05T21:45:24.905Z,89244.88
2019-05-05T21:47:55.054Z,89319.95
2019-05-05T21:50:26.705Z,89308.66
2019-05-05T21:53:04.589Z,89156.20
2019-05-05T21:55:36.073Z,89247.43
2019-05-05T21:58:07.412Z,89207.50
2019-05-05T22:00:50.839Z,89157.38
2019-05-05T22:03:23.642Z,89225.37
2019-05-05T22:05:53.973Z,89235.84
2019-05-05T22:08:25.005Z,89223.41
2019-05-05T22:10:54.803Z,89191.09
2019-05-05T22:13:24.696Z,89250.95
2019-05-05T22:15:54.772Z,89161.72
2019-05-05T22:18:24.502Z,89320.48
2019-05-05T22:21:04.297Z,89192.29
2019-05-05T22:23:36.698Z,89275.47
2019-05-05T22:26:06.080Z,89227.27
2019-05-05T22:28:35.867Z,89165.27
2019-05-05T22:31:05.613Z,89276.65
2019-05-05T22:33:35.359Z,89278.29
2019-05-05T22:36:07.093Z,89434.88
2019-05-05T22:38:36.678Z,89415.63
2019-05-05T22:41:06.440Z,89388.20
2019-05-05T22:43:36.367Z,89261.52
2019-05-05T22:46:06.151Z,89205.19
2019-05-05T22:48:35.892Z,89081.45
2019-05-05T22:51:05.810Z,89194.94
2019-05-05T22:53:36.724Z,89112.17
2019-05-05T22:56:06.916Z,89324.97
2019-05-05T22:58:37.106Z,89248.61
2019-05-05T23:01:06.872Z,89133.87
2019-05-05T23:03:41.402Z,89058.11
2019-05-05T23:06:13.803Z,89056.94
2019-05-05T23:08:45.238Z,89213.35
2019-05-05T23:11:15.166Z,89048.72
2019-05-05T23:13:44.925Z,89036.53
2019-05-05T23:16:16.282Z,88778.61
2019-05-05T23:18:46.035Z,88729.31
2019-05-05T23:21:34.165Z,88519.67
2019-05-05T23:24:23.667Z,88588.58
2019-05-05T23:26:54.778Z,88587.89
2019-05-05T23:29:26.471Z,88454.19
2019-05-05T23:31:56.116Z,88462.41
2019-05-05T23:34:25.921Z,88446.41
2019-05-05T23:36:55.697Z,88352.43
2019-05-05T23:39:25.767Z,88320.42
2019-05-05T23:41:55.568Z,88430.87
2019-05-05T23:44:25.368Z,88352.30
2019-05-05T23:46:55.037Z,88319.19
2019-05-05T23:49:24.838Z,88388.89
2019-05-05T23:51:54.600Z,88364.60
2019-05-05T23:54:24.822Z,88184.32
2019-05-05T23:56:54.977Z,88351.91
2019-05-05T23:59:24.542Z,88421.47
